Time;durP1;ratioP1;P1;durP2;ratioP2;P2;SDS_P1;SDS_P2;PMS_P1;PMS_P2;Temp;Humidity;BMP_temperature;BMP_pressure;BME280_temperature;BME280_humidity;BME280_pressure;Samples;Min_cycle;Max_cycle;Signal;HPM_P1;HPM_P2
2021/12/22 00:00:24;;;;;;;3.03;0.30;;;;;;;0.92;50.09;96117.50;5132649;28;20895;-51
2021/12/22 00:02:52;;;;;;;0.20;0.20;;;;;;;0.97;49.27;96125.56;5132967;27;20875;-51
2021/12/22 00:05:25;;;;;;;0.20;0.20;;;;;;;1.11;50.72;96119.44;5133098;27;20419;-51
2021/12/22 00:07:53;;;;;;;0.20;0.20;;;;;;;0.22;50.11;96121.91;5132847;28;20473;-51
2021/12/22 00:10:23;;;;;;;0.20;0.20;;;;;;;-0.73;51.66;96001.44;5132546;27;20435;-51
2021/12/22 00:12:53;;;;;;;0.20;0.20;;;;;;;-0.04;55.71;96127.63;5132491;28;20465;-51
2021/12/22 00:15:22;;;;;;;0.20;0.20;;;;;;;-0.10;54.33;96123.97;5132719;28;20518;-51
2021/12/22 00:17:50;;;;;;;0.30;0.30;;;;;;;-0.92;53.66;96100.88;5132361;28;20499;-51
2021/12/22 00:20:18;;;;;;;0.20;0.20;;;;;;;-0.37;58.27;96123.84;5134891;27;20465;-51
2021/12/22 00:22:47;;;;;;;0.20;0.20;;;;;;;0.05;56.58;96131.75;5136516;27;20948;-51
2021/12/22 00:25:16;;;;;;;0.20;0.20;;;;;;;0.07;52.88;96129.78;5136732;27;20435;-51
2021/12/22 00:27:44;;;;;;;0.20;0.20;;;;;;;0.19;52.72;96132.69;5136400;27;20857;-51
2021/12/22 00:30:14;;;;;;;0.20;0.20;;;;;;;0.52;51.04;96131.22;5136270;27;20502;-51
2021/12/22 00:32:50;;;;;;;0.20;0.20;;;;;;;0.60;50.23;96134.53;5136338;27;20514;-51
2021/12/22 00:35:20;;;;;;;0.20;0.20;;;;;;;0.79;49.86;96137.47;5136520;27;20437;-51
2021/12/22 00:37:48;;;;;;;1.50;1.50;;;;;;;0.81;50.11;96145.94;5136223;27;20557;-51
2021/12/22 00:40:17;;;;;;;0.20;0.20;;;;;;;0.83;49.70;96151.75;5136235;27;20427;-51
2021/12/22 00:42:45;;;;;;;0.20;0.20;;;;;;;0.83;48.55;96141.31;5135747;27;20493;-51
2021/12/22 00:45:17;;;;;;;0.20;0.20;;;;;;;0.27;49.28;96162.06;5136387;27;20493;-51
2021/12/22 00:47:46;;;;;;;0.20;0.20;;;;;;;0.39;48.48;96157.97;5136411;27;20415;-51
2021/12/22 00:50:14;;;;;;;0.20;0.20;;;;;;;-0.19;50.28;96171.97;5135898;27;20827;-51
2021/12/22 00:52:44;;;;;;;0.20;0.20;;;;;;;0.12;50.33;96165.72;5136073;27;20435;-51
2021/12/22 00:55:17;;;;;;;0.20;0.20;;;;;;;0.17;50.85;96169.38;5135974;27;21004;-52
2021/12/22 00:57:46;;;;;;;0.20;0.20;;;;;;;0.54;49.63;96173.56;5135792;27;20517;-51
2021/12/22 01:00:17;;;;;;;0.20;0.20;;;;;;;0.41;50.52;96182.06;5135929;27;20891;-51
2021/12/22 01:02:46;;;;;;;0.43;0.43;;;;;;;0.04;51.29;96176.22;5135927;27;20450;-51
2021/12/22 01:05:16;;;;;;;0.20;0.20;;;;;;;0.00;52.19;96184.41;5135577;27;20430;-51
2021/12/22 01:07:47;;;;;;;0.47;0.47;;;;;;;-0.38;52.80;96177.72;5135579;27;20505;-51
2021/12/22 01:10:19;;;;;;;0.20;0.17;;;;;;;-0.57;54.45;96180.88;5135601;27;20422;-51
2021/12/22 01:12:48;;;;;;;0.20;0.20;;;;;;;-0.56;54.24;96172.09;5135546;27;20887;-51
2021/12/22 01:15:17;;;;;;;0.40;0.40;;;;;;;-0.20;53.19;96170.34;5135661;27;20497;-51
2021/12/22 01:17:49;;;;;;;0.20;0.20;;;;;;;0.18;51.87;96165.78;5135434;27;20423;-51
2021/12/22 01:20:24;;;;;;;0.30;0.20;;;;;;;0.02;52.29;96149.56;5135531;27;20488;-51
2021/12/22 01:23:01;;;;;;;0.20;0.20;;;;;;;0.07;52.27;96166.25;5135374;27;20458;-51
2021/12/22 01:25:31;;;;;;;0.20;0.20;;;;;;;0.08;52.24;96175.69;5135414;27;20429;-51
2021/12/22 01:27:59;;;;;;;0.20;0.20;;;;;;;-0.02;53.74;96169.94;5135735;27;20438;-51
2021/12/22 01:30:31;;;;;;;0.30;0.20;;;;;;;0.20;56.52;96170.81;5135604;27;20426;-51
2021/12/22 01:33:03;;;;;;;0.30;0.30;;;;;;;0.30;55.63;96166.13;5135235;27;20462;-51
2021/12/22 01:35:34;;;;;;;0.20;0.20;;;;;;;0.39;54.63;96167.59;5135048;27;20474;-51
2021/12/22 01:38:03;;;;;;;0.20;0.20;;;;;;;-0.18;55.27;96163.13;5135059;27;20506;-51
2021/12/22 01:40:33;;;;;;;2.00;0.40;;;;;;;-0.02;54.50;96173.38;5134991;27;20473;-51
2021/12/22 01:43:02;;;;;;;0.20;0.20;;;;;;;0.26;53.69;96159.63;5134994;27;20570;-51
2021/12/22 01:45:52;;;;;;;0.20;0.20;;;;;;;0.37;52.97;96149.53;5134963;27;20439;-51
2021/12/22 01:51:29;;;;;;;0.30;0.30;;;;;;;0.32;53.27;96154.50;5134959;27;20468;-51
2021/12/22 01:54:02;;;;;;;0.53;0.53;;;;;;;0.19;53.35;96153.56;5135386;27;20415;-51
2021/12/22 01:56:34;;;;;;;0.20;0.20;;;;;;;0.24;52.88;96120.72;5134917;27;20430;-51
2021/12/22 01:59:06;;;;;;;0.20;0.20;;;;;;;0.05;54.22;96146.59;5134959;27;20557;-51
2021/12/22 02:01:37;;;;;;;0.20;0.20;;;;;;;0.22;52.80;96153.19;5134655;27;20924;-51
2021/12/22 02:04:10;;;;;;;0.20;0.20;;;;;;;-0.91;52.98;96139.72;5134785;27;20521;-51
2021/12/22 02:06:40;;;;;;;0.20;0.20;;;;;;;-0.69;53.75;96153.66;5134520;27;20414;-51
2021/12/22 02:09:28;;;;;;;0.80;0.50;;;;;;;-0.42;53.38;96142.63;5134371;27;20479;-51
2021/12/22 02:11:56;;;;;;;0.20;0.20;;;;;;;-0.15;52.17;96141.94;5134138;27;20964;-51
2021/12/22 02:14:25;;;;;;;0.20;0.20;;;;;;;0.09;51.50;96142.63;5134626;27;20854;-51
2021/12/22 02:16:55;;;;;;;0.20;0.20;;;;;;;-0.11;51.98;96143.22;5134601;27;20465;-51
2021/12/22 02:19:23;;;;;;;0.20;0.20;;;;;;;-0.08;52.01;96140.22;5134450;27;20898;-51
2021/12/22 02:21:57;;;;;;;0.30;0.20;;;;;;;-0.15;52.37;96149.75;5132951;27;20513;-51
2021/12/22 02:24:25;;;;;;;0.20;0.20;;;;;;;-0.11;53.18;96148.41;5134038;27;20507;-51
2021/12/22 02:27:01;;;;;;;0.40;0.40;;;;;;;0.07;53.24;96144.59;5134165;27;20906;-51
2021/12/22 02:29:36;;;;;;;0.20;0.20;;;;;;;-0.37;53.61;96147.28;5134299;27;20481;-51
2021/12/22 02:32:11;;;;;;;0.20;0.20;;;;;;;-0.78;55.94;96154.72;5134379;27;20464;-51
2021/12/22 02:34:42;;;;;;;0.20;0.20;;;;;;;-0.26;56.48;96152.03;5133930;27;20913;-51
2021/12/22 02:37:16;;;;;;;0.70;0.70;;;;;;;-0.12;54.97;96149.41;5134110;27;20509;-51
2021/12/22 02:39:51;;;;;;;0.20;0.20;;;;;;;-0.70;56.32;96149.44;5133692;27;20560;-51
2021/12/22 02:42:23;;;;;;;0.37;0.37;;;;;;;-0.30;54.27;96148.97;5133367;27;20503;-51
2021/12/22 02:44:52;;;;;;;0.30;0.20;;;;;;;-0.33;53.02;96154.53;5134058;27;20494;-51
2021/12/22 02:47:22;;;;;;;0.20;0.20;;;;;;;-0.92;55.60;96152.94;5133813;27;20513;-51
2021/12/22 02:49:51;;;;;;;0.40;0.40;;;;;;;-0.67;55.70;96151.69;5134168;27;20801;-51
2021/12/22 02:52:21;;;;;;;0.20;0.20;;;;;;;-0.46;55.14;96148.38;5133735;27;20459;-50
2021/12/22 02:54:54;;;;;;;0.20;0.20;;;;;;;-0.39;54.62;96142.25;5133210;27;20521;-50
2021/12/22 02:57:29;;;;;;;0.20;0.20;;;;;;;-0.51;55.44;96153.31;5133560;27;20514;-51
2021/12/22 03:02:56;;;;;;;0.20;0.20;;;;;;;-1.03;59.21;96132.53;5133369;27;20877;-51
2021/12/22 03:05:26;;;;;;;0.20;0.20;;;;;;;-0.35;56.50;96146.09;5133372;27;20628;-51
2021/12/22 03:07:56;;;;;;;0.50;0.50;;;;;;;-0.54;56.95;96145.84;5133676;27;20459;-51
2021/12/22 03:10:24;;;;;;;0.20;0.20;;;;;;;-0.59;57.22;96149.00;5133723;27;20497;-51
2021/12/22 03:12:56;;;;;;;0.50;0.50;;;;;;;-0.51;56.30;96146.31;5133428;27;20469;-51
2021/12/22 03:15:24;;;;;;;0.20;0.20;;;;;;;-0.27;56.78;96145.19;5133666;27;20860;-51
2021/12/22 03:17:53;;;;;;;0.87;0.87;;;;;;;-1.11;58.62;96143.03;5133475;27;20567;-51
2021/12/22 03:20:21;;;;;;;0.20;0.20;;;;;;;-1.55;61.40;96150.72;5133163;27;20976;-51
2021/12/22 03:22:51;;;;;;;0.20;0.20;;;;;;;-1.18;64.26;96149.91;5133529;27;20506;-51
2021/12/22 03:25:26;;;;;;;0.20;0.20;;;;;;;-1.37;62.72;96149.41;5133581;27;20910;-51
2021/12/22 03:28:02;;;;;;;0.30;0.20;;;;;;;-1.43;60.67;96155.31;5133100;27;20430;-51
2021/12/22 03:30:31;;;;;;;0.20;0.20;;;;;;;-1.14;62.37;96153.78;5133352;27;20479;-51
2021/12/22 03:33:00;;;;;;;0.20;0.20;;;;;;;-0.74;60.33;96150.78;5133270;27;20473;-51
2021/12/22 03:35:28;;;;;;;0.20;0.20;;;;;;;-1.03;57.76;96143.75;5133348;27;20450;-51
2021/12/22 03:37:59;;;;;;;0.20;0.20;;;;;;;-1.22;58.75;96157.28;5132873;27;20426;-51
2021/12/22 03:40:29;;;;;;;0.30;0.20;;;;;;;-1.51;59.97;96160.59;5132887;27;20497;-51
2021/12/22 03:42:57;;;;;;;0.20;0.13;;;;;;;-1.87;61.31;96133.53;5132852;27;20518;-51
2021/12/22 03:45:26;;;;;;;0.20;0.20;;;;;;;-1.62;61.30;96166.19;5133294;27;20414;-51
2021/12/22 03:47:54;;;;;;;0.20;0.20;;;;;;;-1.71;60.56;96164.63;5132789;27;20473;-51
2021/12/22 03:50:23;;;;;;;0.20;0.20;;;;;;;-1.67;60.88;96173.69;5132864;28;20462;-51
2021/12/22 03:52:51;;;;;;;0.30;0.30;;;;;;;-1.58;60.82;96171.84;5132641;28;20942;-51
2021/12/22 03:55:20;;;;;;;0.20;0.20;;;;;;;-2.07;62.35;96166.13;5135779;27;20513;-51
2021/12/22 03:57:50;;;;;;;0.30;0.30;;;;;;;-2.87;65.48;96170.66;5137536;27;20476;-51
2021/12/22 04:00:19;;;;;;;1.00;0.67;;;;;;;-3.09;70.85;96183.50;5136434;27;20508;-51
2021/12/22 04:02:47;;;;;;;0.20;0.20;;;;;;;-2.40;66.76;96168.06;5136951;27;20462;-51
2021/12/22 04:05:18;;;;;;;0.60;0.60;;;;;;;-2.16;64.58;96178.38;5137002;27;20792;-51
2021/12/22 04:07:47;;;;;;;0.20;0.20;;;;;;;-3.46;64.86;96013.78;5137144;27;20419;-51
2021/12/22 04:10:22;;;;;;;0.20;0.20;;;;;;;-2.99;66.57;96176.34;5137072;27;20457;-51
2021/12/22 04:12:54;;;;;;;1.30;1.30;;;;;;;-2.49;67.05;96176.06;5136843;27;20482;-51
2021/12/22 04:15:25;;;;;;;0.20;0.20;;;;;;;-2.26;65.25;96171.75;5136845;27;20461;-51
2021/12/22 04:17:55;;;;;;;0.20;0.20;;;;;;;-2.41;66.01;96163.88;5136472;27;20465;-51
2021/12/22 04:20:24;;;;;;;0.30;0.30;;;;;;;-2.82;66.23;96147.63;5136449;27;21143;-51
2021/12/22 04:22:52;;;;;;;0.83;0.83;;;;;;;-2.90;68.86;96176.16;5136510;27;20454;-51
2021/12/22 04:25:21;;;;;;;0.30;0.20;;;;;;;-2.73;68.87;96169.97;5136424;27;20427;-51
2021/12/22 04:27:50;;;;;;;0.30;0.20;;;;;;;-2.27;65.62;96170.13;5136868;27;20853;-51
2021/12/22 04:30:21;;;;;;;0.23;0.20;;;;;;;-2.08;64.19;96172.31;5136782;27;20480;-51
2021/12/22 04:32:49;;;;;;;0.70;0.30;;;;;;;-2.15;64.57;96174.78;5136495;27;20456;-51
2021/12/22 04:35:18;;;;;;;0.20;0.20;;;;;;;-2.48;65.53;96146.53;5136025;27;20525;-51
2021/12/22 04:37:47;;;;;;;0.43;0.43;;;;;;;-2.10;63.66;96182.84;5136360;27;20430;-51
2021/12/22 04:40:16;;;;;;;0.40;0.40;;;;;;;-2.73;62.16;96084.34;5136165;27;20520;-51
2021/12/22 04:42:45;;;;;;;1.70;0.80;;;;;;;-2.02;63.46;96187.19;5136596;27;20446;-51
2021/12/22 04:45:15;;;;;;;0.30;0.20;;;;;;;-1.78;60.60;96188.88;5136302;27;20510;-51
2021/12/22 04:47:45;;;;;;;0.30;0.30;;;;;;;-1.82;61.08;96196.19;5136262;27;20509;-51
2021/12/22 04:50:17;;;;;;;0.30;0.30;;;;;;;-1.86;60.46;96194.94;5136520;27;20429;-51
2021/12/22 04:52:52;;;;;;;0.30;0.30;;;;;;;-1.87;61.04;96188.09;5136531;27;20410;-51
2021/12/22 04:55:21;;;;;;;0.20;0.20;;;;;;;-2.11;62.56;96194.25;5136049;27;20426;-51
2021/12/22 04:57:50;;;;;;;1.03;1.03;;;;;;;-2.15;63.18;96192.16;5136307;27;20479;-51
2021/12/22 05:00:19;;;;;;;0.50;0.50;;;;;;;-2.39;64.11;96197.44;5135744;27;20486;-51
2021/12/22 05:02:49;;;;;;;0.30;0.20;;;;;;;-2.34;64.25;96202.94;5135531;27;21017;-51
2021/12/22 05:05:18;;;;;;;0.30;0.30;;;;;;;-2.24;63.82;96190.56;5135261;27;20425;-51
2021/12/22 05:07:47;;;;;;;0.40;0.40;;;;;;;-2.28;63.98;96200.50;5135736;27;20439;-51
2021/12/22 05:10:17;;;;;;;1.00;1.00;;;;;;;-2.19;64.53;96193.47;5135921;27;20438;-51
2021/12/22 05:12:46;;;;;;;2.80;2.67;;;;;;;-2.42;65.41;96197.75;5135443;27;20431;-51
2021/12/22 05:15:17;;;;;;;0.47;0.47;;;;;;;-2.32;65.27;96198.38;5135449;27;20472;-51
2021/12/22 05:20:32;;;;;;;0.20;0.20;;;;;;;-2.49;66.39;96215.00;5135277;27;20549;-50
2021/12/22 05:23:01;;;;;;;0.33;0.30;;;;;;;-2.57;66.81;96201.06;5135292;27;20522;-50
2021/12/22 05:25:29;;;;;;;0.23;0.20;;;;;;;-2.53;66.96;96204.16;5135370;27;20492;-51
2021/12/22 05:27:58;;;;;;;0.23;0.20;;;;;;;-2.97;69.25;96205.53;5135091;27;20521;-50
2021/12/22 05:30:26;;;;;;;1.67;1.67;;;;;;;-2.97;71.33;96201.16;5135345;27;20494;-50
2021/12/22 05:32:55;;;;;;;1.80;0.63;;;;;;;-2.99;73.09;96207.47;5135067;27;20521;-50
2021/12/22 05:35:24;;;;;;;0.40;0.40;;;;;;;-2.60;70.89;96201.38;5135075;27;20514;-51
2021/12/22 05:37:54;;;;;;;0.30;0.20;;;;;;;-2.63;70.52;96203.50;5135085;27;20460;-50
2021/12/22 05:40:27;;;;;;;0.30;0.20;;;;;;;-2.64;71.17;96197.53;5134899;27;21033;-50
2021/12/22 05:42:57;;;;;;;0.20;0.20;;;;;;;-2.53;70.59;96211.13;5134613;27;20989;-50
2021/12/22 05:45:26;;;;;;;0.20;0.20;;;;;;;-2.60;70.62;96204.00;5134591;27;20518;-50
2021/12/22 05:47:54;;;;;;;1.17;1.17;;;;;;;-2.46;68.68;96214.66;5134162;27;20434;-51
2021/12/22 05:50:23;;;;;;;0.27;0.17;;;;;;;-2.03;70.39;96224.56;5133930;27;20501;-51
2021/12/22 05:52:52;;;;;;;0.30;0.30;;;;;;;-2.40;67.59;96211.41;5134569;27;20458;-50
2021/12/22 05:55:22;;;;;;;0.73;0.73;;;;;;;-2.03;68.69;96209.78;5134156;27;20510;-50
2021/12/22 05:57:50;;;;;;;0.20;0.20;;;;;;;-2.38;65.64;96217.22;5133808;27;20993;-51
2021/12/22 06:00:19;;;;;;;0.50;0.50;;;;;;;-2.21;63.45;96216.19;5134014;27;20529;-50
2021/12/22 06:02:47;;;;;;;2.27;2.20;;;;;;;-2.75;65.41;96221.22;5134470;27;20466;-50
2021/12/22 06:05:18;;;;;;;2.00;0.60;;;;;;;-2.89;68.33;96218.47;5133963;27;20429;-50
2021/12/22 06:07:47;;;;;;;0.60;0.40;;;;;;;-2.54;66.31;96220.69;5134536;27;20450;-50
2021/12/22 06:10:15;;;;;;;0.30;0.20;;;;;;;-2.38;67.24;96231.03;5134566;27;20514;-50
2021/12/22 06:12:45;;;;;;;0.30;0.30;;;;;;;-3.27;67.30;96145.59;5134525;27;20942;-50
2021/12/22 06:15:13;;;;;;;0.40;0.40;;;;;;;-2.31;64.17;96216.41;5134308;27;20428;-50
2021/12/22 06:17:42;;;;;;;3.47;2.13;;;;;;;-2.01;63.70;96233.00;5133354;27;20426;-50
2021/12/22 06:20:12;;;;;;;0.63;0.63;;;;;;;-2.36;65.12;96239.47;5134678;27;20522;-50
2021/12/22 06:22:40;;;;;;;0.30;0.20;;;;;;;-1.83;63.54;96241.34;5133982;27;20501;-50
2021/12/22 06:25:09;;;;;;;0.20;0.20;;;;;;;-1.87;64.12;96228.88;5134223;27;20511;-50
2021/12/22 06:27:37;;;;;;;1.40;0.83;;;;;;;-1.60;63.77;96247.41;5134395;27;20501;-50
2021/12/22 06:30:08;;;;;;;0.30;0.23;;;;;;;-1.59;64.89;96249.00;5134196;27;20422;-50
2021/12/22 06:32:37;;;;;;;0.20;0.20;;;;;;;-1.83;67.38;96254.34;5134064;27;20423;-50
2021/12/22 06:35:08;;;;;;;0.20;0.20;;;;;;;-1.60;67.27;96257.81;5134250;27;20521;-50
2021/12/22 06:37:37;;;;;;;0.57;0.57;;;;;;;-1.99;68.88;96257.81;5133779;27;20414;-50
2021/12/22 06:40:07;;;;;;;0.30;0.30;;;;;;;-1.28;66.52;96243.78;5133468;27;20463;-51
2021/12/22 06:42:35;;;;;;;1.60;1.30;;;;;;;-0.54;63.06;96240.41;5134014;27;20498;-50
2021/12/22 06:45:05;;;;;;;0.20;0.20;;;;;;;0.09;58.16;96241.66;5133962;27;20451;-50
2021/12/22 06:47:35;;;;;;;0.20;0.20;;;;;;;-0.17;57.93;96247.31;5133707;27;20906;-50
2021/12/22 06:50:03;;;;;;;3.97;2.10;;;;;;;-0.21;57.86;96240.88;5133602;27;20949;-51
2021/12/22 06:52:33;;;;;;;0.47;0.47;;;;;;;-0.03;57.74;96249.91;5133908;27;20477;-50
2021/12/22 06:55:02;;;;;;;0.20;0.20;;;;;;;1.06;54.76;96247.09;5133451;27;20517;-51
2021/12/22 06:57:32;;;;;;;0.20;0.20;;;;;;;1.36;52.75;96236.53;5133541;27;20427;-51
2021/12/22 07:00:02;;;;;;;0.50;0.50;;;;;;;1.05;50.42;96122.81;5132952;27;20506;-51
2021/12/22 07:02:35;;;;;;;0.47;0.47;;;;;;;1.90;49.69;96237.47;5133206;27;20476;-51
2021/12/22 07:05:09;;;;;;;0.87;0.83;;;;;;;2.01;48.10;96236.13;5133239;27;20521;-51
2021/12/22 07:07:38;;;;;;;1.23;1.23;;;;;;;2.13;47.82;96231.97;5133268;27;20423;-52
2021/12/22 07:10:10;;;;;;;1.13;1.13;;;;;;;2.18;46.99;96226.94;5133140;27;20461;-51
2021/12/22 07:12:41;;;;;;;0.70;0.70;;;;;;;2.46;46.15;96238.94;5132790;27;20463;-51
2021/12/22 07:15:12;;;;;;;0.70;0.70;;;;;;;2.34;45.10;96182.97;5133226;27;20514;-51
2021/12/22 07:17:41;;;;;;;1.60;1.60;;;;;;;2.82;45.16;96219.50;5133151;27;20423;-50
2021/12/22 07:20:13;;;;;;;0.50;0.50;;;;;;;3.56;42.87;96247.19;5132929;27;20430;-51
2021/12/22 07:22:42;;;;;;;0.77;0.77;;;;;;;3.62;42.82;96248.97;5132975;27;20511;-51
2021/12/22 07:25:13;;;;;;;1.23;1.10;;;;;;;3.49;41.52;96203.63;5132915;27;20430;-50
2021/12/22 07:27:42;;;;;;;2.27;2.07;;;;;;;3.85;41.14;96246.72;5133283;27;20532;-50
2021/12/22 07:30:12;;;;;;;1.80;1.70;;;;;;;4.14;40.25;96257.78;5132723;27;20522;-50
2021/12/22 07:32:40;;;;;;;2.63;1.60;;;;;;;4.01;40.82;96253.38;5132938;27;20910;-50
2021/12/22 07:35:19;;;;;;;3.03;2.93;;;;;;;4.78;39.28;96255.09;5133072;27;20464;-49
2021/12/22 07:37:52;;;;;;;3.00;2.60;;;;;;;4.75;40.00;96252.91;5132748;27;20462;-49
2021/12/22 07:40:21;;;;;;;2.53;1.73;;;;;;;5.25;39.77;96249.34;5132515;27;20460;-49
2021/12/22 07:42:49;;;;;;;1.43;1.43;;;;;;;5.82;38.86;96258.78;5132510;27;20526;-49
2021/12/22 07:45:17;;;;;;;8.70;2.00;;;;;;;5.97;37.32;96245.34;5132412;27;20534;-49
2021/12/22 07:47:46;;;;;;;1.33;1.23;;;;;;;5.86;38.10;96244.22;5132345;27;20469;-49
2021/12/22 07:50:16;;;;;;;0.77;0.77;;;;;;;5.95;36.83;96252.63;5132346;27;20435;-49
2021/12/22 07:52:45;;;;;;;2.30;2.20;;;;;;;5.86;37.44;96241.59;5132827;28;20426;-49
2021/12/22 07:55:13;;;;;;;0.70;0.70;;;;;;;6.13;37.05;96244.75;5131932;28;20997;-49
2021/12/22 07:57:41;;;;;;;3.70;2.60;;;;;;;6.62;36.60;96235.91;5132257;28;20454;-49
2021/12/22 08:00:11;;;;;;;1.70;1.23;;;;;;;6.67;37.20;96241.31;5131881;28;20458;-50
2021/12/22 08:02:40;;;;;;;4.90;2.77;;;;;;;6.66;36.27;96244.97;5132488;28;20520;-50
2021/12/22 08:05:25;;;;;;;1.67;1.57;;;;;;;6.40;36.33;96188.16;5132678;27;20487;-50
2021/12/22 08:07:56;;;;;;;1.70;1.60;;;;;;;7.31;36.16;96232.72;5132714;28;20501;-50
2021/12/22 08:10:24;;;;;;;1.07;1.07;;;;;;;7.26;36.10;96237.88;5132305;28;20518;-51
2021/12/22 08:12:52;;;;;;;6.17;3.90;;;;;;;7.33;35.36;96243.84;5132342;28;20426;-50
2021/12/22 08:15:21;;;;;;;4.77;2.60;;;;;;;6.86;36.19;96240.25;5131743;28;20599;-50
2021/12/22 08:17:50;;;;;;;1.60;1.60;;;;;;;6.87;36.40;96240.03;5132469;28;20962;-50
2021/12/22 08:20:18;;;;;;;2.53;2.33;;;;;;;7.23;35.86;96243.59;5132432;28;20521;-50
2021/12/22 08:22:48;;;;;;;0.60;0.60;;;;;;;7.11;35.66;96216.41;5132989;27;20549;-51
2021/12/22 08:25:18;;;;;;;0.80;0.80;;;;;;;7.59;35.32;96236.31;5132713;28;20469;-51
2021/12/22 08:27:47;;;;;;;1.20;1.20;;;;;;;7.77;34.12;96242.53;5132465;28;20505;-52
2021/12/22 08:30:16;;;;;;;2.13;2.03;;;;;;;8.11;34.06;96239.09;5132627;28;20445;-52
2021/12/22 08:32:45;;;;;;;1.63;1.53;;;;;;;8.45;33.25;96242.75;5132419;28;20415;-53
2021/12/22 08:35:15;;;;;;;1.70;1.07;;;;;;;7.88;33.19;96216.16;5132337;27;20431;-54
2021/12/22 08:40:32;;;;;;;9.07;1.97;;;;;;;8.10;34.10;96240.91;5133093;27;20486;-59
2021/12/22 08:43:01;;;;;;;3.00;2.80;;;;;;;8.42;33.47;96236.09;5136435;27;20505;-61
2021/12/22 08:45:29;;;;;;;6.40;1.77;;;;;;;8.81;32.72;96235.28;5136234;27;20517;-61
2021/12/22 08:47:58;;;;;;;2.43;2.33;;;;;;;8.81;32.94;96237.94;5136313;27;20430;-61
2021/12/22 08:50:27;;;;;;;8.63;1.90;;;;;;;9.83;32.14;96227.25;5135955;27;20521;-60
2021/12/22 08:52:56;;;;;;;0.63;0.63;;;;;;;10.20;31.97;96215.91;5135928;27;20506;-60
2021/12/22 08:55:24;;;;;;;1.53;1.43;;;;;;;9.30;32.19;96227.72;5136073;27;20462;-56
2021/12/22 08:57:54;;;;;;;0.90;0.90;;;;;;;8.84;32.18;96213.66;5135640;27;20461;-52
2021/12/22 09:00:23;;;;;;;1.73;0.90;;;;;;;9.54;31.74;96226.50;5135872;27;20496;-52
2021/12/22 09:02:51;;;;;;;1.00;0.87;;;;;;;10.67;30.65;96216.25;5135702;27;20961;-53
2021/12/22 09:05:20;;;;;;;1.40;1.30;;;;;;;9.81;30.88;96206.31;5135548;27;20437;-53
2021/12/22 09:07:48;;;;;;;5.43;1.13;;;;;;;10.48;30.05;96200.88;5135602;27;20514;-53
2021/12/22 09:10:17;;;;;;;0.80;0.80;;;;;;;11.30;31.09;96196.19;5135719;27;20501;-53
2021/12/22 09:12:45;;;;;;;1.10;1.00;;;;;;;11.49;29.11;96187.59;5135562;27;20430;-53
2021/12/22 09:15:17;;;;;;;1.10;0.83;;;;;;;11.08;29.18;96198.91;5135248;27;20450;-53
2021/12/22 09:17:46;;;;;;;3.70;0.73;;;;;;;13.12;29.52;96171.44;5135288;27;20513;-54
2021/12/22 09:20:14;;;;;;;2.23;2.13;;;;;;;12.41;27.48;96171.22;5135500;27;20462;-54
2021/12/22 09:22:43;;;;;;;0.70;0.40;;;;;;;12.92;27.25;96174.84;5135514;27;20553;-54
2021/12/22 09:25:11;;;;;;;2.20;1.30;;;;;;;12.16;28.34;96179.06;5134935;27;20483;-54
2021/12/22 09:27:40;;;;;;;2.07;1.13;;;;;;;12.16;27.49;96178.25;5135392;27;20866;-54
2021/12/22 09:30:10;;;;;;;1.83;1.73;;;;;;;11.96;27.28;96171.78;5135023;27;20922;-54
2021/12/22 09:32:40;;;;;;;5.60;2.50;;;;;;;11.30;28.12;96167.00;5135090;27;20462;-54
2021/12/22 09:35:09;;;;;;;2.20;1.70;;;;;;;11.49;28.34;96153.09;5135023;27;20514;-54
2021/12/22 09:37:38;;;;;;;1.80;0.93;;;;;;;12.70;28.52;96177.69;5135314;27;20458;-54
2021/12/22 09:40:08;;;;;;;3.03;1.57;;;;;;;12.08;27.25;96158.28;5135264;27;20454;-54
2021/12/22 09:42:37;;;;;;;2.73;1.40;;;;;;;11.59;27.70;96165.63;5135160;27;20553;-53
2021/12/22 09:45:06;;;;;;;3.03;1.37;;;;;;;11.76;27.42;96155.72;5134922;27;20422;-53
2021/12/22 09:47:49;;;;;;;0.80;0.77;;;;;;;12.77;27.32;96141.00;5134525;27;20479;-53
2021/12/22 09:50:35;;;;;;;2.50;2.30;;;;;;;11.92;28.11;96146.78;5134741;27;20537;-53
2021/12/22 09:53:03;;;;;;;6.83;2.60;;;;;;;13.29;27.12;96142.72;5133226;27;20477;-53
2021/12/22 09:55:34;;;;;;;5.93;1.77;;;;;;;12.13;28.01;96128.28;5134967;27;20495;-54
2021/12/22 09:58:03;;;;;;;2.40;1.73;;;;;;;12.41;27.10;96136.66;5134172;27;20477;-53
2021/12/22 10:00:35;;;;;;;1.53;1.43;;;;;;;12.54;26.89;96130.84;5134221;27;20670;-53
2021/12/22 10:03:03;;;;;;;7.60;1.73;;;;;;;12.36;27.28;96086.13;5134393;27;20565;-53
2021/12/22 10:05:33;;;;;;;1.23;1.13;;;;;;;11.21;28.29;96131.34;5134328;27;20441;-53
2021/12/22 10:08:06;;;;;;;2.80;1.30;;;;;;;11.77;27.45;96121.97;5134039;27;20431;-53
2021/12/22 10:10:36;;;;;;;0.77;0.77;;;;;;;11.60;27.84;96121.31;5133976;27;20422;-53
2021/12/22 10:13:07;;;;;;;1.17;1.17;;;;;;;11.72;27.70;96113.97;5134022;27;20511;-53
2021/12/22 10:15:36;;;;;;;2.40;0.50;;;;;;;12.66;27.36;96107.47;5134502;27;20454;-53
2021/12/22 10:18:09;;;;;;;1.43;1.33;;;;;;;13.15;26.44;96099.06;5133740;27;20774;-53
2021/12/22 10:20:40;;;;;;;1.03;0.40;;;;;;;13.06;26.49;96101.44;5133572;27;20427;-53
2021/12/22 10:23:23;;;;;;;2.60;1.50;;;;;;;12.75;26.20;96099.75;5133740;27;20498;-53
2021/12/22 10:25:54;;;;;;;2.93;1.13;;;;;;;12.41;26.72;96098.63;5133733;27;20517;-53
2021/12/22 10:28:23;;;;;;;1.70;1.60;;;;;;;12.17;27.33;96074.34;5133639;27;20521;-53
2021/12/22 10:30:55;;;;;;;3.10;1.40;;;;;;;12.86;26.60;96082.75;5133805;27;20510;-53
2021/12/22 10:33:26;;;;;;;3.83;1.23;;;;;;;14.36;24.38;96080.16;5133938;27;20782;-53
2021/12/22 10:36:01;;;;;;;0.60;0.60;;;;;;;15.48;24.30;96060.47;5133269;27;20411;-53
2021/12/22 10:38:32;;;;;;;2.83;2.47;;;;;;;14.71;24.42;96071.16;5133591;27;20523;-53
2021/12/22 10:41:03;;;;;;;0.70;0.70;;;;;;;14.15;24.18;96067.94;5133075;27;20434;-53
2021/12/22 10:43:34;;;;;;;5.27;1.27;;;;;;;14.00;24.10;96064.28;5133539;27;20549;-53
2021/12/22 10:46:05;;;;;;;0.57;0.40;;;;;;;15.14;24.76;96044.44;5133944;27;20458;-52
2021/12/22 10:51:28;;;;;;;1.23;1.17;;;;;;;15.25;22.40;96051.25;5133385;27;20435;-53
2021/12/22 10:53:58;;;;;;;1.90;1.80;;;;;;;16.29;22.14;96046.97;5132922;27;20465;-53
2021/12/22 10:56:29;;;;;;;1.93;1.80;;;;;;;13.76;23.49;96038.53;5133490;27;20926;-53
2021/12/22 10:59:03;;;;;;;1.73;1.73;;;;;;;12.78;24.70;96048.69;5132594;27;20430;-53
2021/12/22 11:01:34;;;;;;;1.20;1.20;;;;;;;14.18;23.93;96038.88;5133565;27;20892;-52
2021/12/22 11:04:14;;;;;;;2.30;2.20;;;;;;;14.29;23.28;96032.44;5133016;27;21046;-53
2021/12/22 11:06:43;;;;;;;0.93;0.93;;;;;;;13.93;24.02;96031.81;5133676;27;20447;-52
2021/12/22 11:09:15;;;;;;;2.33;2.23;;;;;;;14.37;23.52;96010.53;5132372;27;20562;-52
2021/12/22 11:11:45;;;;;;;0.87;0.87;;;;;;;14.19;22.71;96021.84;5132510;27;20451;-53
2021/12/22 11:14:17;;;;;;;2.10;0.80;;;;;;;14.45;22.20;96014.50;5133317;27;20909;-52
2021/12/22 11:16:58;;;;;;;0.60;0.50;;;;;;;13.50;22.81;96008.50;5133473;27;20513;-52
2021/12/22 11:19:29;;;;;;;1.17;1.07;;;;;;;13.66;23.56;96010.03;5133419;27;20431;-52
2021/12/22 11:22:08;;;;;;;0.57;0.57;;;;;;;13.73;22.38;96007.91;5132197;27;20450;-52
2021/12/22 11:24:43;;;;;;;0.60;0.60;;;;;;;14.30;22.38;96001.22;5132720;27;20500;-52
2021/12/22 11:27:14;;;;;;;0.90;0.90;;;;;;;13.63;22.45;95959.19;5133349;27;20502;-52
2021/12/22 11:29:45;;;;;;;0.43;0.40;;;;;;;13.62;22.74;96000.19;5132651;27;20482;-52
2021/12/22 11:32:17;;;;;;;4.40;0.50;;;;;;;13.49;23.02;96001.56;5132732;27;20431;-52
2021/12/22 11:34:49;;;;;;;1.33;0.60;;;;;;;12.96;22.97;96000.28;5133055;27;20530;-52
2021/12/22 11:37:20;;;;;;;0.67;0.67;;;;;;;13.00;22.96;96003.22;5133015;27;20426;-52
2021/12/22 11:39:50;;;;;;;0.90;0.90;;;;;;;13.42;22.91;95995.72;5132906;27;20953;-52
2021/12/22 11:42:23;;;;;;;0.77;0.77;;;;;;;13.35;23.24;95985.38;5133176;27;20819;-52
2021/12/22 11:44:54;;;;;;;0.40;0.40;;;;;;;13.42;22.96;95973.63;5132363;27;20834;-52
2021/12/22 11:47:23;;;;;;;0.60;0.60;;;;;;;14.45;21.82;95971.81;5132882;27;20493;-52
2021/12/22 11:49:54;;;;;;;0.40;0.20;;;;;;;14.98;21.13;95972.75;5132737;27;20986;-52
2021/12/22 11:52:32;;;;;;;0.80;0.80;;;;;;;15.07;21.13;95968.41;5132981;27;20435;-52
2021/12/22 11:55:17;;;;;;;0.60;0.43;;;;;;;16.67;21.29;95961.41;5132883;28;20501;-52
2021/12/22 11:57:46;;;;;;;0.67;0.67;;;;;;;15.63;20.85;95961.44;5132525;28;20812;-52
2021/12/22 12:00:31;;;;;;;0.50;0.40;;;;;;;14.08;22.11;95966.16;5131785;28;20465;-53
2021/12/22 12:03:20;;;;;;;0.70;0.60;;;;;;;14.42;22.12;95967.06;5132409;27;20509;-53
2021/12/22 12:06:07;;;;;;;0.50;0.50;;;;;;;14.89;21.85;95951.22;5132549;27;20478;-54